Portada
METAR-TAF:

METAR-TAF

Aeroports :

Makhatxkalà, Rússia

latitud: 42-49-01N, longitud: 047-39-08E, altitud: 4 m

Observació

L'informe es va fer fa 23 minuts, a les 05:30 UTC
Vent 6 kt del Sud
Temperatura 5°C
Humitat 81%
Pressió 1017 hPa
Visibilitat 10 km o més
Cel cobert a una alçada de 3500 ft

METAR: URML 240530Z 17003MPS 9999 OVC035 05/02 Q1017 R14/01//70 NOSIG RMK QFE763/1017

Hora: 08:53 (05:53 UTC)

Pronòstic

L'informe es va fer fa 53 minuts, a les 05:00 UTC
Pronòstic vàlid del 24 a les 06 UTC al 24 a les 15 UTC
Vent 16 kt del Sud-Est amb ràfegues de 27 kt
Visibilitat: 6000 m
Cel ennuvolat a una alçada de 1700 ft
Temporalment
l' 24 a les 06 UTC al 24 a les 07 UTC
Vent 4 kt amb direcció variable
Visibilitat: 3100 m
Cel ennuvolat a una alçada de 1600 ft
boirina

TAF: URML 240500Z 2406/2415 14008G14MPS 6000 BKN017 TEMPO 2406/2407 VRB02MPS 3100 BR BKN016

Observacions i pronòstics meteorològics de més de 4000 aeroports (METAR i TAF).

Les estacions disponibles són els punts grocs i vermells al mapa.

Posi el ratolí al punt desitjat per veure el nom de l'estació.

Feu clic per veure les observacions i els pronòstics meteorològics.

Per canviar el mapa: feu clic els botons verds amb una creu de color negre per apropar; al botó verd amb un guió per allunyar la imatge; o en les fletxes verdes per a mapes adjacents.


METAR-TAF: